Terminal Aerodrome Forecast
Issued by NWS Quad Cities IA IL

Home | Current Version | Previous Version | Text Only | Print | Product List | Glossary On
Versions: 1 2 3 4 5 6 7 8 9 10 11 12 13 14 15 16 17 18 19 20 21 22 23 24 25
054
FTUS43 KDVN 231730
TAFDBQ
TAF
KDBQ 231730Z 2318/2418 32007KT P6SM OVC008
     FM232200 32007KT P6SM OVC012
     FM240200 33004KT 5SM BR OVC008
     FM240600 VRB02KT 2SM BR OVC004
     FM241600 09007KT 5SM BR OVC008=

USA.gov is the U.S. government's official web portal to all federal, state and local government web resources and services.